sensor_id;sensor_type;location;lat;lon;timestamp;P1;durP1;ratioP1;P2;durP2;ratioP2
41167;SDS011;26906;45.658;9.272;2022-09-09T04:33:21;4.55;;;1.65;;
41167;SDS011;26906;45.658;9.272;2022-09-09T04:35:49;2.40;;;1.25;;
41167;SDS011;26906;45.658;9.272;2022-09-09T04:38:20;2.40;;;0.98;;
41167;SDS011;26906;45.658;9.272;2022-09-09T04:40:48;2.78;;;1.40;;
41167;SDS011;26906;45.658;9.272;2022-09-09T04:43:17;2.20;;;1.25;;
41167;SDS011;26906;45.658;9.272;2022-09-09T04:45:47;1.00;;;0.90;;
41167;SDS011;26906;45.658;9.272;2022-09-09T04:48:14;2.05;;;1.10;;
41167;SDS011;26906;45.658;9.272;2022-09-09T04:50:40;3.15;;;1.08;;
41167;SDS011;26906;45.658;9.272;2022-09-09T04:53:08;1.95;;;0.63;;
41167;SDS011;26906;45.658;9.272;2022-09-09T04:55:36;1.70;;;0.90;;
41167;SDS011;26906;45.658;9.272;2022-09-09T04:58:03;2.97;;;1.35;;
41167;SDS011;26906;45.658;9.272;2022-09-09T05:00:34;2.38;;;0.80;;
41167;SDS011;26906;45.658;9.272;2022-09-09T05:03:03;1.20;;;0.70;;
41167;SDS011;26906;45.658;9.272;2022-09-09T05:05:31;1.10;;;0.85;;
41167;SDS011;26906;45.658;9.272;2022-09-09T05:08:03;3.90;;;0.95;;
41167;SDS011;26906;45.658;9.272;2022-09-09T05:10:31;1.52;;;0.90;;
41167;SDS011;26906;45.658;9.272;2022-09-09T05:12:58;1.52;;;0.90;;
41167;SDS011;26906;45.658;9.272;2022-09-09T05:15:27;1.55;;;0.80;;
41167;SDS011;26906;45.658;9.272;2022-09-09T05:17:52;1.70;;;0.90;;
41167;SDS011;26906;45.658;9.272;2022-09-09T05:20:23;2.03;;;0.80;;
41167;SDS011;26906;45.658;9.272;2022-09-09T05:22:52;1.40;;;0.90;;
41167;SDS011;26906;45.658;9.272;2022-09-09T05:25:19;1.55;;;0.73;;
41167;SDS011;26906;45.658;9.272;2022-09-09T05:27:45;1.10;;;0.70;;
41167;SDS011;26906;45.658;9.272;2022-09-09T05:30:10;1.58;;;0.80;;
41167;SDS011;26906;45.658;9.272;2022-09-09T05:32:36;3.40;;;1.05;;
41167;SDS011;26906;45.658;9.272;2022-09-09T05:35:02;3.05;;;1.17;;
41167;SDS011;26906;45.658;9.272;2022-09-09T05:37:30;1.83;;;0.80;;
41167;SDS011;26906;45.658;9.272;2022-09-09T05:39:57;3.83;;;0.93;;
41167;SDS011;26906;45.658;9.272;2022-09-09T05:42:23;1.83;;;0.80;;
41167;SDS011;26906;45.658;9.272;2022-09-09T05:44:49;2.80;;;1.00;;
41167;SDS011;26906;45.658;9.272;2022-09-09T05:47:16;2.53;;;1.25;;
41167;SDS011;26906;45.658;9.272;2022-09-09T05:49:42;2.90;;;0.88;;
41167;SDS011;26906;45.658;9.272;2022-09-09T05:52:09;2.63;;;0.95;;
41167;SDS011;26906;45.658;9.272;2022-09-09T05:54:35;3.50;;;1.23;;
41167;SDS011;26906;45.658;9.272;2022-09-09T05:57:02;3.75;;;1.10;;
41167;SDS011;26906;45.658;9.272;2022-09-09T05:59:31;1.95;;;0.82;;
41167;SDS011;26906;45.658;9.272;2022-09-09T06:01:59;2.83;;;0.85;;
41167;SDS011;26906;45.658;9.272;2022-09-09T06:04:31;2.80;;;1.10;;
41167;SDS011;26906;45.658;9.272;2022-09-09T06:06:58;1.42;;;0.80;;
41167;SDS011;26906;45.658;9.272;2022-09-09T06:09:24;3.63;;;1.10;;
41167;SDS011;26906;45.658;9.272;2022-09-09T06:11:50;3.42;;;0.98;;
41167;SDS011;26906;45.658;9.272;2022-09-09T06:14:16;2.42;;;1.00;;
41167;SDS011;26906;45.658;9.272;2022-09-09T06:16:45;3.20;;;0.90;;
41167;SDS011;26906;45.658;9.272;2022-09-09T06:19:16;3.63;;;0.80;;
41167;SDS011;26906;45.658;9.272;2022-09-09T06:21:43;2.45;;;0.90;;
41167;SDS011;26906;45.658;9.272;2022-09-09T06:24:10;2.92;;;1.13;;
41167;SDS011;26906;45.658;9.272;2022-09-09T06:26:39;2.35;;;1.10;;
41167;SDS011;26906;45.658;9.272;2022-09-09T06:29:11;3.45;;;1.20;;
41167;SDS011;26906;45.658;9.272;2022-09-09T06:31:38;2.08;;;1.42;;
41167;SDS011;26906;45.658;9.272;2022-09-09T06:34:14;3.70;;;1.30;;
41167;SDS011;26906;45.658;9.272;2022-09-09T06:36:44;2.05;;;1.10;;
41167;SDS011;26906;45.658;9.272;2022-09-09T06:39:11;2.67;;;1.00;;
41167;SDS011;26906;45.658;9.272;2022-09-09T06:41:38;4.80;;;1.13;;
41167;SDS011;26906;45.658;9.272;2022-09-09T06:44:08;3.63;;;1.10;;
41167;SDS011;26906;45.658;9.272;2022-09-09T06:46:40;3.03;;;1.40;;
41167;SDS011;26906;45.658;9.272;2022-09-09T06:49:07;2.22;;;1.30;;
41167;SDS011;26906;45.658;9.272;2022-09-09T06:51:35;1.58;;;0.88;;
41167;SDS011;26906;45.658;9.272;2022-09-09T06:54:04;4.90;;;1.50;;
41167;SDS011;26906;45.658;9.272;2022-09-09T06:56:34;1.45;;;0.90;;
41167;SDS011;26906;45.658;9.272;2022-09-09T06:59:06;2.58;;;1.10;;
41167;SDS011;26906;45.658;9.272;2022-09-09T07:01:35;2.17;;;1.10;;
41167;SDS011;26906;45.658;9.272;2022-09-09T07:04:05;8.48;;;1.40;;
41167;SDS011;26906;45.658;9.272;2022-09-09T07:06:35;3.60;;;1.20;;
41167;SDS011;26906;45.658;9.272;2022-09-09T07:09:08;3.20;;;0.95;;
41167;SDS011;26906;45.658;9.272;2022-09-09T07:11:37;2.38;;;1.27;;
41167;SDS011;26906;45.658;9.272;2022-09-09T07:14:08;1.83;;;1.30;;
41167;SDS011;26906;45.658;9.272;2022-09-09T07:16:34;3.45;;;1.23;;
41167;SDS011;26906;45.658;9.272;2022-09-09T07:19:03;2.60;;;1.25;;
41167;SDS011;26906;45.658;9.272;2022-09-09T07:21:30;5.28;;;1.35;;
41167;SDS011;26906;45.658;9.272;2022-09-09T07:23:57;3.83;;;1.30;;
41167;SDS011;26906;45.658;9.272;2022-09-09T07:26:27;4.13;;;1.30;;
41167;SDS011;26906;45.658;9.272;2022-09-09T07:28:56;3.15;;;1.02;;
41167;SDS011;26906;45.658;9.272;2022-09-09T07:31:27;3.60;;;1.42;;
41167;SDS011;26906;45.658;9.272;2022-09-09T07:33:59;2.60;;;1.30;;
41167;SDS011;26906;45.658;9.272;2022-09-09T07:36:35;2.47;;;1.40;;
41167;SDS011;26906;45.658;9.272;2022-09-09T07:39:06;4.13;;;1.25;;
41167;SDS011;26906;45.658;9.272;2022-09-09T07:41:38;2.47;;;1.40;;
41167;SDS011;26906;45.658;9.272;2022-09-09T07:44:12;3.55;;;1.23;;
41167;SDS011;26906;45.658;9.272;2022-09-09T07:46:41;2.60;;;1.30;;
41167;SDS011;26906;45.658;9.272;2022-09-09T07:49:09;2.00;;;1.00;;
41167;SDS011;26906;45.658;9.272;2022-09-09T07:51:37;4.40;;;1.20;;
41167;SDS011;26906;45.658;9.272;2022-09-09T07:54:05;4.80;;;1.20;;
41167;SDS011;26906;45.658;9.272;2022-09-09T07:56:35;5.07;;;1.35;;
41167;SDS011;26906;45.658;9.272;2022-09-09T07:59:03;3.55;;;1.33;;
41167;SDS011;26906;45.658;9.272;2022-09-09T08:01:38;2.70;;;1.15;;
41167;SDS011;26906;45.658;9.272;2022-09-09T08:04:09;3.60;;;1.05;;
41167;SDS011;26906;45.658;9.272;2022-09-09T08:06:41;3.72;;;1.35;;
41167;SDS011;26906;45.658;9.272;2022-09-09T08:09:17;3.75;;;1.40;;
41167;SDS011;26906;45.658;9.272;2022-09-09T08:11:46;2.35;;;1.50;;
41167;SDS011;26906;45.658;9.272;2022-09-09T08:14:16;1.80;;;1.30;;
41167;SDS011;26906;45.658;9.272;2022-09-09T08:16:43;2.20;;;1.40;;
41167;SDS011;26906;45.658;9.272;2022-09-09T08:19:16;5.68;;;1.38;;
41167;SDS011;26906;45.658;9.272;2022-09-09T08:21:44;4.18;;;2.10;;
41167;SDS011;26906;45.658;9.272;2022-09-09T08:24:11;4.45;;;2.38;;
41167;SDS011;26906;45.658;9.272;2022-09-09T08:26:41;4.68;;;1.70;;
41167;SDS011;26906;45.658;9.272;2022-09-09T08:29:10;4.05;;;1.90;;
41167;SDS011;26906;45.658;9.272;2022-09-09T08:31:40;5.00;;;1.98;;
41167;SDS011;26906;45.658;9.272;2022-09-09T08:34:08;8.45;;;1.80;;
41167;SDS011;26906;45.658;9.272;2022-09-09T08:36:37;3.47;;;1.98;;
41167;SDS011;26906;45.658;9.272;2022-09-09T08:39:06;4.13;;;1.50;;
41167;SDS011;26906;45.658;9.272;2022-09-09T08:50:24;2.25;;;1.35;;
41167;SDS011;26906;45.658;9.272;2022-09-09T08:53:05;2.05;;;0.80;;
41167;SDS011;26906;45.658;9.272;2022-09-09T08:58:15;2.78;;;1.10;;
41167;SDS011;26906;45.658;9.272;2022-09-09T09:09:12;4.75;;;1.20;;
41167;SDS011;26906;45.658;9.272;2022-09-09T09:11:46;2.05;;;0.95;;
41167;SDS011;26906;45.658;9.272;2022-09-09T09:16:51;2.20;;;0.80;;
41167;SDS011;26906;45.658;9.272;2022-09-09T09:19:29;2.10;;;1.00;;
41167;SDS011;26906;45.658;9.272;2022-09-09T09:22:03;3.30;;;1.10;;
41167;SDS011;26906;45.658;9.272;2022-09-09T09:27:14;1.25;;;0.80;;
41167;SDS011;26906;45.658;9.272;2022-09-09T09:29:47;1.13;;;0.70;;
41167;SDS011;26906;45.658;9.272;2022-09-09T09:32:16;3.58;;;0.80;;
41167;SDS011;26906;45.658;9.272;2022-09-09T09:34:52;1.48;;;0.70;;
41167;SDS011;26906;45.658;9.272;2022-09-09T09:37:34;1.67;;;0.80;;
41167;SDS011;26906;45.658;9.272;2022-09-09T09:40:09;1.83;;;0.73;;
41167;SDS011;26906;45.658;9.272;2022-09-09T09:42:35;1.77;;;0.60;;
41167;SDS011;26906;45.658;9.272;2022-09-09T09:45:40;6.53;;;1.45;;
41167;SDS011;26906;45.658;9.272;2022-09-09T09:47:59;6.90;;;1.40;;
41167;SDS011;26906;45.658;9.272;2022-09-09T09:50:39;2.47;;;1.20;;
41167;SDS011;26906;45.658;9.272;2022-09-09T09:53:25;2.63;;;1.13;;
41167;SDS011;26906;45.658;9.272;2022-09-09T09:56:09;3.67;;;1.20;;
41167;SDS011;26906;45.658;9.272;2022-09-09T10:01:31;4.57;;;1.65;;
41167;SDS011;26906;45.658;9.272;2022-09-09T10:06:51;4.10;;;1.65;;
41167;SDS011;26906;45.658;9.272;2022-09-09T10:17:40;1.80;;;1.37;;
41167;SDS011;26906;45.658;9.272;2022-09-09T10:20:52;5.60;;;2.13;;
41167;SDS011;26906;45.658;9.272;2022-09-09T10:39:58;2.28;;;1.40;;
41167;SDS011;26906;45.658;9.272;2022-09-09T10:42:30;3.08;;;1.70;;
41167;SDS011;26906;45.658;9.272;2022-09-09T10:53:20;3.15;;;1.33;;
41167;SDS011;26906;45.658;9.272;2022-09-09T10:55:53;9.88;;;1.42;;
41167;SDS011;26906;45.658;9.272;2022-09-09T10:58:27;4.78;;;1.75;;
41167;SDS011;26906;45.658;9.272;2022-09-09T11:01:00;2.75;;;1.42;;
41167;SDS011;26906;45.658;9.272;2022-09-09T11:03:49;4.47;;;1.30;;
41167;SDS011;26906;45.658;9.272;2022-09-09T11:06:21;2.08;;;1.40;;
41167;SDS011;26906;45.658;9.272;2022-09-09T11:08:53;2.17;;;0.98;;
41167;SDS011;26906;45.658;9.272;2022-09-09T11:11:30;1.65;;;0.82;;
41167;SDS011;26906;45.658;9.272;2022-09-09T11:16:45;2.72;;;1.20;;
41167;SDS011;26906;45.658;9.272;2022-09-09T11:19:24;4.93;;;1.52;;
41167;SDS011;26906;45.658;9.272;2022-09-09T11:22:12;4.85;;;1.00;;
41167;SDS011;26906;45.658;9.272;2022-09-09T11:30:45;2.30;;;1.00;;
41167;SDS011;26906;45.658;9.272;2022-09-09T11:33:28;2.85;;;1.08;;
41167;SDS011;26906;45.658;9.272;2022-09-09T11:39:02;4.63;;;1.20;;
41167;SDS011;26906;45.658;9.272;2022-09-09T11:44:39;3.92;;;1.10;;
41167;SDS011;26906;45.658;9.272;2022-09-09T11:47:23;4.65;;;0.90;;
41167;SDS011;26906;45.658;9.272;2022-09-09T11:50:09;2.90;;;1.00;;
41167;SDS011;26906;45.658;9.272;2022-09-09T11:55:38;2.65;;;1.00;;
41167;SDS011;26906;45.658;9.272;2022-09-09T11:58:15;3.75;;;1.00;;
41167;SDS011;26906;45.658;9.272;2022-09-09T12:00:44;3.85;;;1.10;;
41167;SDS011;26906;45.658;9.272;2022-09-09T12:08:52;5.35;;;1.10;;
41167;SDS011;26906;45.658;9.272;2022-09-09T12:11:26;1.80;;;1.20;;
41167;SDS011;26906;45.658;9.272;2022-09-09T12:13:57;3.58;;;1.40;;
41167;SDS011;26906;45.658;9.272;2022-09-09T12:16:34;3.10;;;1.25;;
41167;SDS011;26906;45.658;9.272;2022-09-09T12:19:03;4.35;;;1.10;;
41167;SDS011;26906;45.658;9.272;2022-09-09T12:24:33;2.27;;;1.00;;
41167;SDS011;26906;45.658;9.272;2022-09-09T12:30:10;4.70;;;1.00;;
41167;SDS011;26906;45.658;9.272;2022-09-09T12:32:39;2.33;;;1.13;;
41167;SDS011;26906;45.658;9.272;2022-09-09T12:35:12;2.92;;;1.27;;
41167;SDS011;26906;45.658;9.272;2022-09-09T12:37:46;1.70;;;0.90;;
41167;SDS011;26906;45.658;9.272;2022-09-09T12:40:18;2.55;;;1.05;;
41167;SDS011;26906;45.658;9.272;2022-09-09T12:42:44;4.03;;;1.30;;
41167;SDS011;26906;45.658;9.272;2022-09-09T12:45:17;2.85;;;1.10;;
41167;SDS011;26906;45.658;9.272;2022-09-09T12:48:08;4.03;;;1.02;;
41167;SDS011;26906;45.658;9.272;2022-09-09T12:50:48;4.70;;;1.10;;
41167;SDS011;26906;45.658;9.272;2022-09-09T12:53:21;1.63;;;1.00;;
41167;SDS011;26906;45.658;9.272;2022-09-09T12:55:59;6.50;;;1.20;;
41167;SDS011;26906;45.658;9.272;2022-09-09T12:58:28;2.03;;;1.00;;
41167;SDS011;26906;45.658;9.272;2022-09-09T13:00:58;1.80;;;0.90;;
41167;SDS011;26906;45.658;9.272;2022-09-09T13:03:25;1.00;;;0.90;;
41167;SDS011;26906;45.658;9.272;2022-09-09T13:05:52;2.95;;;0.90;;
41167;SDS011;26906;45.658;9.272;2022-09-09T13:08:24;2.72;;;1.30;;
41167;SDS011;26906;45.658;9.272;2022-09-09T13:10:57;3.58;;;0.95;;
41167;SDS011;26906;45.658;9.272;2022-09-09T13:13:40;1.45;;;0.90;;
41167;SDS011;26906;45.658;9.272;2022-09-09T13:16:29;2.10;;;1.10;;
41167;SDS011;26906;45.658;9.272;2022-09-09T13:19:16;1.63;;;0.80;;
41167;SDS011;26906;45.658;9.272;2022-09-09T13:21:42;3.33;;;1.20;;
41167;SDS011;26906;45.658;9.272;2022-09-09T13:26:59;3.80;;;3.03;;
41167;SDS011;26906;45.658;9.272;2022-09-09T13:29:52;1.40;;;0.90;;
41167;SDS011;26906;45.658;9.272;2022-09-09T13:32:23;3.63;;;1.10;;
41167;SDS011;26906;45.658;9.272;2022-09-09T13:34:50;5.43;;;1.40;;
41167;SDS011;26906;45.658;9.272;2022-09-09T13:37:28;3.67;;;1.40;;
41167;SDS011;26906;45.658;9.272;2022-09-09T13:39:59;4.60;;;1.40;;
41167;SDS011;26906;45.658;9.272;2022-09-09T13:42:31;2.95;;;1.02;;
41167;SDS011;26906;45.658;9.272;2022-09-09T13:45:00;1.92;;;1.20;;
41167;SDS011;26906;45.658;9.272;2022-09-09T13:47:33;2.05;;;1.00;;
41167;SDS011;26906;45.658;9.272;2022-09-09T13:50:20;2.65;;;0.95;;
41167;SDS011;26906;45.658;9.272;2022-09-09T13:52:55;2.22;;;1.15;;
41167;SDS011;26906;45.658;9.272;2022-09-09T13:55:26;2.47;;;1.17;;
41167;SDS011;26906;45.658;9.272;2022-09-09T13:57:57;3.70;;;1.20;;
41167;SDS011;26906;45.658;9.272;2022-09-09T14:00:25;4.32;;;1.10;;
41167;SDS011;26906;45.658;9.272;2022-09-09T14:02:53;2.47;;;1.00;;
41167;SDS011;26906;45.658;9.272;2022-09-09T14:05:20;3.72;;;1.08;;
41167;SDS011;26906;45.658;9.272;2022-09-09T14:07:47;1.58;;;0.90;;
41167;SDS011;26906;45.658;9.272;2022-09-09T14:10:13;4.38;;;1.17;;
41167;SDS011;26906;45.658;9.272;2022-09-09T14:12:39;4.35;;;1.25;;
41167;SDS011;26906;45.658;9.272;2022-09-09T14:15:05;1.85;;;1.10;;
41167;SDS011;26906;45.658;9.272;2022-09-09T14:17:32;3.63;;;1.10;;
41167;SDS011;26906;45.658;9.272;2022-09-09T14:19:58;5.30;;;1.30;;
41167;SDS011;26906;45.658;9.272;2022-09-09T14:22:24;2.70;;;1.23;;
41167;SDS011;26906;45.658;9.272;2022-09-09T14:24:50;2.90;;;1.10;;
41167;SDS011;26906;45.658;9.272;2022-09-09T14:27:16;3.33;;;1.15;;
41167;SDS011;26906;45.658;9.272;2022-09-09T14:29:43;3.92;;;1.20;;
41167;SDS011;26906;45.658;9.272;2022-09-09T14:32:10;3.67;;;1.67;;
41167;SDS011;26906;45.658;9.272;2022-09-09T14:34:37;2.83;;;1.20;;
41167;SDS011;26906;45.658;9.272;2022-09-09T14:37:05;3.22;;;1.15;;
41167;SDS011;26906;45.658;9.272;2022-09-09T14:39:31;4.03;;;0.90;;
41167;SDS011;26906;45.658;9.272;2022-09-09T14:41:58;3.35;;;1.10;;
41167;SDS011;26906;45.658;9.272;2022-09-09T14:44:24;2.72;;;1.17;;
41167;SDS011;26906;45.658;9.272;2022-09-09T14:46:50;5.20;;;2.20;;
41167;SDS011;26906;45.658;9.272;2022-09-09T14:49:16;3.80;;;1.08;;
41167;SDS011;26906;45.658;9.272;2022-09-09T14:51:44;4.32;;;1.70;;
41167;SDS011;26906;45.658;9.272;2022-09-09T14:54:10;3.03;;;1.33;;
41167;SDS011;26906;45.658;9.272;2022-09-09T14:56:35;3.08;;;1.75;;
41167;SDS011;26906;45.658;9.272;2022-09-09T14:59:01;3.08;;;1.10;;
41167;SDS011;26906;45.658;9.272;2022-09-09T15:01:28;2.97;;;1.20;;
41167;SDS011;26906;45.658;9.272;2022-09-09T15:03:58;3.28;;;1.25;;
41167;SDS011;26906;45.658;9.272;2022-09-09T15:06:27;2.78;;;1.20;;
41167;SDS011;26906;45.658;9.272;2022-09-09T15:08:54;3.42;;;1.33;;
41167;SDS011;26906;45.658;9.272;2022-09-09T15:11:23;2.60;;;1.20;;
41167;SDS011;26906;45.658;9.272;2022-09-09T15:13:50;6.32;;;1.30;;
41167;SDS011;26906;45.658;9.272;2022-09-09T15:16:20;2.35;;;1.20;;
41167;SDS011;26906;45.658;9.272;2022-09-09T15:18:52;5.00;;;1.33;;
41167;SDS011;26906;45.658;9.272;2022-09-09T15:21:21;2.72;;;1.10;;
41167;SDS011;26906;45.658;9.272;2022-09-09T15:23:49;3.85;;;1.42;;
41167;SDS011;26906;45.658;9.272;2022-09-09T15:26:16;1.85;;;1.20;;
41167;SDS011;26906;45.658;9.272;2022-09-09T15:28:43;4.05;;;1.15;;
41167;SDS011;26906;45.658;9.272;2022-09-09T15:31:14;4.75;;;1.30;;
41167;SDS011;26906;45.658;9.272;2022-09-09T15:33:48;3.88;;;1.20;;
41167;SDS011;26906;45.658;9.272;2022-09-09T15:36:25;4.28;;;1.38;;
41167;SDS011;26906;45.658;9.272;2022-09-09T15:38:54;5.80;;;1.42;;
41167;SDS011;26906;45.658;9.272;2022-09-09T15:41:21;5.57;;;1.20;;
41167;SDS011;26906;45.658;9.272;2022-09-09T15:43:54;4.43;;;1.10;;
41167;SDS011;26906;45.658;9.272;2022-09-09T15:48:51;6.60;;;1.30;;
41167;SDS011;26906;45.658;9.272;2022-09-09T15:51:17;2.70;;;1.65;;
41167;SDS011;26906;45.658;9.272;2022-09-09T15:53:43;6.10;;;1.40;;
41167;SDS011;26906;45.658;9.272;2022-09-09T15:56:10;3.60;;;1.30;;
41167;SDS011;26906;45.658;9.272;2022-09-09T15:58:36;3.28;;;1.60;;
41167;SDS011;26906;45.658;9.272;2022-09-09T16:01:05;4.85;;;1.73;;
41167;SDS011;26906;45.658;9.272;2022-09-09T16:03:41;3.65;;;1.48;;
41167;SDS011;26906;45.658;9.272;2022-09-09T16:06:08;5.03;;;1.30;;
41167;SDS011;26906;45.658;9.272;2022-09-09T16:11:08;2.03;;;1.20;;
41167;SDS011;26906;45.658;9.272;2022-09-09T16:13:40;3.45;;;1.20;;
41167;SDS011;26906;45.658;9.272;2022-09-09T16:16:10;2.58;;;1.20;;
41167;SDS011;26906;45.658;9.272;2022-09-09T16:18:39;4.07;;;1.50;;
41167;SDS011;26906;45.658;9.272;2022-09-09T16:21:08;5.15;;;1.90;;
41167;SDS011;26906;45.658;9.272;2022-09-09T16:23:41;2.88;;;1.40;;
41167;SDS011;26906;45.658;9.272;2022-09-09T16:26:08;3.33;;;1.45;;
41167;SDS011;26906;45.658;9.272;2022-09-09T16:28:36;3.75;;;1.40;;
41167;SDS011;26906;45.658;9.272;2022-09-09T16:31:06;6.10;;;1.60;;
41167;SDS011;26906;45.658;9.272;2022-09-09T16:33:35;3.08;;;1.10;;
41167;SDS011;26906;45.658;9.272;2022-09-09T16:36:05;3.13;;;1.23;;
41167;SDS011;26906;45.658;9.272;2022-09-09T16:38:32;5.05;;;1.38;;
41167;SDS011;26906;45.658;9.272;2022-09-09T16:41:01;2.92;;;1.20;;
41167;SDS011;26906;45.658;9.272;2022-09-09T16:43:28;4.57;;;1.10;;
41167;SDS011;26906;45.658;9.272;2022-09-09T16:45:53;4.65;;;1.33;;
41167;SDS011;26906;45.658;9.272;2022-09-09T16:48:20;3.10;;;1.70;;
41167;SDS011;26906;45.658;9.272;2022-09-09T16:50:47;3.03;;;1.40;;
41167;SDS011;26906;45.658;9.272;2022-09-09T16:53:14;5.22;;;1.30;;
41167;SDS011;26906;45.658;9.272;2022-09-09T16:55:40;3.60;;;1.65;;
41167;SDS011;26906;45.658;9.272;2022-09-09T16:58:07;2.40;;;1.30;;
41167;SDS011;26906;45.658;9.272;2022-09-09T17:00:34;3.00;;;1.20;;
41167;SDS011;26906;45.658;9.272;2022-09-09T17:03:00;3.47;;;1.35;;
41167;SDS011;26906;45.658;9.272;2022-09-09T17:05:25;3.47;;;1.50;;
41167;SDS011;26906;45.658;9.272;2022-09-09T17:07:51;5.20;;;1.33;;
41167;SDS011;26906;45.658;9.272;2022-09-09T17:10:18;3.75;;;1.10;;
41167;SDS011;26906;45.658;9.272;2022-09-09T17:12:44;3.88;;;1.40;;
41167;SDS011;26906;45.658;9.272;2022-09-09T17:15:11;1.48;;;1.00;;
41167;SDS011;26906;45.658;9.272;2022-09-09T17:17:36;6.15;;;1.33;;
41167;SDS011;26906;45.658;9.272;2022-09-09T17:20:02;6.28;;;1.23;;
41167;SDS011;26906;45.658;9.272;2022-09-09T17:22:29;3.53;;;1.27;;
41167;SDS011;26906;45.658;9.272;2022-09-09T17:24:55;3.17;;;1.30;;
41167;SDS011;26906;45.658;9.272;2022-09-09T17:27:20;3.70;;;1.50;;
41167;SDS011;26906;45.658;9.272;2022-09-09T17:29:46;2.45;;;1.40;;
41167;SDS011;26906;45.658;9.272;2022-09-09T17:32:12;4.57;;;1.60;;
41167;SDS011;26906;45.658;9.272;2022-09-09T17:34:37;4.30;;;1.30;;
41167;SDS011;26906;45.658;9.272;2022-09-09T17:37:03;4.85;;;1.42;;
41167;SDS011;26906;45.658;9.272;2022-09-09T17:39:31;5.72;;;1.63;;
41167;SDS011;26906;45.658;9.272;2022-09-09T17:41:57;3.35;;;1.50;;
41167;SDS011;26906;45.658;9.272;2022-09-09T17:44:23;4.78;;;1.30;;
41167;SDS011;26906;45.658;9.272;2022-09-09T17:46:48;2.42;;;1.40;;
41167;SDS011;26906;45.658;9.272;2022-09-09T17:49:15;5.68;;;1.95;;
41167;SDS011;26906;45.658;9.272;2022-09-09T17:51:44;4.35;;;1.60;;
41167;SDS011;26906;45.658;9.272;2022-09-09T17:54:15;3.97;;;1.58;;
41167;SDS011;26906;45.658;9.272;2022-09-09T17:56:43;4.22;;;1.80;;
41167;SDS011;26906;45.658;9.272;2022-09-09T17:59:09;6.05;;;2.50;;
41167;SDS011;26906;45.658;9.272;2022-09-09T18:01:38;4.20;;;1.70;;
41167;SDS011;26906;45.658;9.272;2022-09-09T18:04:06;4.05;;;1.70;;
41167;SDS011;26906;45.658;9.272;2022-09-09T18:06:35;2.83;;;1.75;;
41167;SDS011;26906;45.658;9.272;2022-09-09T18:09:10;4.30;;;1.80;;
41167;SDS011;26906;45.658;9.272;2022-09-09T18:11:42;5.65;;;1.90;;
41167;SDS011;26906;45.658;9.272;2022-09-09T18:14:10;3.67;;;1.52;;
41167;SDS011;26906;45.658;9.272;2022-09-09T18:16:38;4.40;;;1.95;;
41167;SDS011;26906;45.658;9.272;2022-09-09T18:19:05;6.07;;;2.15;;
41167;SDS011;26906;45.658;9.272;2022-09-09T18:21:33;3.47;;;2.20;;
41167;SDS011;26906;45.658;9.272;2022-09-09T18:24:00;5.07;;;1.75;;
41167;SDS011;26906;45.658;9.272;2022-09-09T18:26:28;5.13;;;1.70;;
41167;SDS011;26906;45.658;9.272;2022-09-09T18:28:57;4.55;;;1.60;;
41167;SDS011;26906;45.658;9.272;2022-09-09T18:31:26;7.88;;;1.92;;
41167;SDS011;26906;45.658;9.272;2022-09-09T18:33:53;4.38;;;1.73;;
41167;SDS011;26906;45.658;9.272;2022-09-09T18:36:25;5.28;;;2.00;;
41167;SDS011;26906;45.658;9.272;2022-09-09T18:38:52;3.28;;;1.70;;
41167;SDS011;26906;45.658;9.272;2022-09-09T18:41:23;4.38;;;1.67;;
41167;SDS011;26906;45.658;9.272;2022-09-09T18:44:00;9.05;;;2.20;;
41167;SDS011;26906;45.658;9.272;2022-09-09T18:46:29;5.38;;;1.90;;
41167;SDS011;26906;45.658;9.272;2022-09-09T18:48:57;4.47;;;2.13;;
41167;SDS011;26906;45.658;9.272;2022-09-09T18:51:24;9.50;;;2.10;;
41167;SDS011;26906;45.658;9.272;2022-09-09T18:53:53;6.10;;;1.60;;
41167;SDS011;26906;45.658;9.272;2022-09-09T18:56:29;3.22;;;2.10;;
41167;SDS011;26906;45.658;9.272;2022-09-09T18:58:56;7.18;;;2.00;;
41167;SDS011;26906;45.658;9.272;2022-09-09T19:01:24;4.47;;;2.00;;
41167;SDS011;26906;45.658;9.272;2022-09-09T19:03:50;6.10;;;1.95;;
41167;SDS011;26906;45.658;9.272;2022-09-09T19:06:17;4.03;;;1.90;;
41167;SDS011;26906;45.658;9.272;2022-09-09T19:08:46;6.10;;;2.40;;
41167;SDS011;26906;45.658;9.272;2022-09-09T19:11:14;5.60;;;2.20;;
41167;SDS011;26906;45.658;9.272;2022-09-09T19:13:50;5.35;;;2.40;;
41167;SDS011;26906;45.658;9.272;2022-09-09T19:16:17;7.18;;;2.55;;
41167;SDS011;26906;45.658;9.272;2022-09-09T19:18:44;4.43;;;2.30;;
41167;SDS011;26906;45.658;9.272;2022-09-09T19:21:16;4.13;;;1.92;;
41167;SDS011;26906;45.658;9.272;2022-09-09T19:23:44;3.35;;;1.90;;
41167;SDS011;26906;45.658;9.272;2022-09-09T19:26:10;5.80;;;2.03;;
41167;SDS011;26906;45.658;9.272;2022-09-09T19:28:40;4.07;;;1.85;;
41167;SDS011;26906;45.658;9.272;2022-09-09T19:31:08;3.65;;;1.90;;
41167;SDS011;26906;45.658;9.272;2022-09-09T19:33:34;5.82;;;2.03;;
41167;SDS011;26906;45.658;9.272;2022-09-09T19:36:02;4.55;;;2.08;;
41167;SDS011;26906;45.658;9.272;2022-09-09T19:38:31;2.70;;;1.80;;
41167;SDS011;26906;45.658;9.272;2022-09-09T19:41:08;3.42;;;1.88;;
41167;SDS011;26906;45.658;9.272;2022-09-09T19:43:40;5.10;;;1.98;;
41167;SDS011;26906;45.658;9.272;2022-09-09T19:46:07;3.90;;;2.05;;
41167;SDS011;26906;45.658;9.272;2022-09-09T19:48:36;7.50;;;2.30;;
41167;SDS011;26906;45.658;9.272;2022-09-09T19:51:08;4.72;;;2.03;;
41167;SDS011;26906;45.658;9.272;2022-09-09T19:53:39;6.30;;;2.15;;
41167;SDS011;26906;45.658;9.272;2022-09-09T19:56:07;4.70;;;1.90;;
41167;SDS011;26906;45.658;9.272;2022-09-09T19:58:36;4.90;;;2.42;;
41167;SDS011;26906;45.658;9.272;2022-09-09T20:01:05;3.90;;;2.40;;
41167;SDS011;26906;45.658;9.272;2022-09-09T20:03:31;5.43;;;2.15;;
41167;SDS011;26906;45.658;9.272;2022-09-09T20:05:59;6.88;;;2.17;;
41167;SDS011;26906;45.658;9.272;2022-09-09T20:08:25;6.97;;;2.40;;
41167;SDS011;26906;45.658;9.272;2022-09-09T20:10:52;5.55;;;2.08;;
41167;SDS011;26906;45.658;9.272;2022-09-09T20:13:18;3.65;;;2.42;;
41167;SDS011;26906;45.658;9.272;2022-09-09T20:15:45;5.47;;;2.60;;
41167;SDS011;26906;45.658;9.272;2022-09-09T20:18:11;2.75;;;2.10;;
41167;SDS011;26906;45.658;9.272;2022-09-09T20:20:41;6.72;;;2.20;;
41167;SDS011;26906;45.658;9.272;2022-09-09T20:23:07;5.43;;;2.67;;
41167;SDS011;26906;45.658;9.272;2022-09-09T20:25:36;5.45;;;2.38;;
41167;SDS011;26906;45.658;9.272;2022-09-09T20:28:02;4.05;;;2.25;;
41167;SDS011;26906;45.658;9.272;2022-09-09T20:30:28;5.25;;;2.50;;
41167;SDS011;26906;45.658;9.272;2022-09-09T20:32:55;5.10;;;2.38;;
41167;SDS011;26906;45.658;9.272;2022-09-09T20:35:21;5.30;;;2.30;;
41167;SDS011;26906;45.658;9.272;2022-09-09T20:37:46;6.22;;;2.10;;
41167;SDS011;26906;45.658;9.272;2022-09-09T20:40:12;3.35;;;1.90;;
41167;SDS011;26906;45.658;9.272;2022-09-09T20:42:38;4.68;;;2.03;;
41167;SDS011;26906;45.658;9.272;2022-09-09T20:45:04;3.58;;;2.00;;
41167;SDS011;26906;45.658;9.272;2022-09-09T20:47:31;4.18;;;2.17;;
41167;SDS011;26906;45.658;9.272;2022-09-09T20:49:56;2.90;;;1.90;;
41167;SDS011;26906;45.658;9.272;2022-09-09T20:52:22;2.58;;;1.95;;
41167;SDS011;26906;45.658;9.272;2022-09-09T20:54:48;2.30;;;2.08;;
41167;SDS011;26906;45.658;9.272;2022-09-09T20:57:15;6.75;;;2.30;;
41167;SDS011;26906;45.658;9.272;2022-09-09T20:59:46;4.20;;;2.50;;
41167;SDS011;26906;45.658;9.272;2022-09-09T21:02:15;5.97;;;2.35;;
41167;SDS011;26906;45.658;9.272;2022-09-09T21:04:42;4.95;;;2.30;;
41167;SDS011;26906;45.658;9.272;2022-09-09T21:07:09;4.40;;;2.72;;
41167;SDS011;26906;45.658;9.272;2022-09-09T21:09:35;6.22;;;3.58;;
41167;SDS011;26906;45.658;9.272;2022-09-09T21:12:00;5.03;;;2.42;;
41167;SDS011;26906;45.658;9.272;2022-09-09T21:14:26;6.28;;;2.67;;
41167;SDS011;26906;45.658;9.272;2022-09-09T21:16:52;5.60;;;2.05;;